createdAt,value
2023-06-17T00:01:56.030Z,75.55883179047889
2023-06-17T00:12:26.465Z,75.66441871792978
2023-06-17T00:18:46.880Z,76.4499409316674
2023-06-17T00:29:23.563Z,76.72625541441042
2023-06-17T00:41:13.158Z,76.89760190883244
2023-06-17T00:47:34.656Z,76.91719791546481
2023-06-17T00:53:55.330Z,76.79834206375716
2023-06-17T01:00:15.955Z,76.80092090923118
2023-06-17T01:06:36.594Z,77.49346912115737
2023-06-17T01:12:56.245Z,77.99232732845942
2023-06-17T01:19:16.037Z,78.0571376480006
2023-06-17T01:25:36.497Z,77.79311932607533
2023-06-17T01:41:10.407Z,77.54557066338435
2023-06-17T01:47:30.920Z,77.15192599276176
2023-06-17T01:55:45.201Z,77.31821668523087
2023-06-17T02:07:45.434Z,76.9480539250174
2023-06-17T02:14:05.386Z,76.93916833999118
2023-06-17T02:20:25.182Z,76.63161488276786
2023-06-17T02:32:20.011Z,76.75604667573705
2023-06-17T02:45:10.733Z,75.92489284591885
2023-06-17T02:51:30.886Z,75.71833255979605
2023-06-17T02:57:51.527Z,75.99279025667491
2023-06-17T03:06:16.613Z,75.74228956718568
2023-06-17T03:12:36.408Z,75.69416827133696
2023-06-17T03:18:56.840Z,76.02191276601039
2023-06-17T03:30:31.302Z,75.3857953990086
2023-06-17T03:36:51.467Z,75.10347663385865
2023-06-17T03:43:15.518Z,75.2986581758767
2023-06-17T03:49:38.488Z,75.52954080829961
2023-06-17T03:56:00.515Z,77.07721740070629
2023-06-17T04:02:23.179Z,77.7188774529737
2023-06-17T04:08:46.316Z,77.3698057064466
2023-06-17T04:15:08.700Z,78.35520181392162
2023-06-17T04:22:02.527Z,78.23483185849555
2023-06-17T04:32:52.825Z,78.64801864164984
2023-06-17T04:41:36.451Z,78.27547847732679
2023-06-17T04:47:59.110Z,78.26586537621587
2023-06-17T04:54:21.088Z,77.65670725099922
2023-06-17T05:04:11.728Z,77.3932972134939
2023-06-17T05:10:34.878Z,76.71583803421812
2023-06-17T05:16:57.955Z,77.31783021214115
2023-06-17T05:23:21.369Z,76.91622787907872
2023-06-17T05:34:52.771Z,75.86849478466485
2023-06-17T05:41:18.692Z,75.40663844354594
2023-06-17T05:47:41.523Z,74.68205127564609
2023-06-17T05:58:25.875Z,74.27891936987477
2023-06-17T06:10:29.804Z,73.24812553685963
2023-06-17T06:16:52.681Z,73.61392024407064
2023-06-17T06:23:15.422Z,74.95288474002818
2023-06-17T06:34:56.878Z,75.19398454327528
2023-06-17T06:42:36.669Z,72.93661490391818
2023-06-17T06:48:58.924Z,74.2951622448362
2023-06-17T06:55:22.538Z,73.8858727444642
2023-06-17T07:02:07.839Z,73.7975418907974
2023-06-17T07:15:25.319Z,73.1438978642871
2023-06-17T07:21:47.517Z,72.78928739064538
2023-06-17T07:28:10.261Z,72.6996095748518
2023-06-17T07:34:32.837Z,72.27845318209262
2023-06-17T07:40:54.799Z,71.74963477189553
2023-06-17T07:48:41.064Z,71.94947700287369
2023-06-17T08:01:17.517Z,72.1970741125892
2023-06-17T08:07:39.712Z,71.60231939613922
2023-06-17T08:14:31.096Z,70.63370684558876
2023-06-17T08:22:33.420Z,70.61977021571641
2023-06-17T08:28:56.780Z,69.28993065871896
2023-06-17T08:35:20.551Z,69.00601070485149
2023-06-17T08:43:19.190Z,69.23162268023265
2023-06-17T08:49:43.870Z,67.96765535140382
2023-06-17T08:56:08.982Z,67.27099151754663
2023-06-17T09:02:33.157Z,66.97780415890024
2023-06-17T09:08:56.670Z,66.26167314851052
2023-06-17T09:15:20.697Z,65.63076663925368
2023-06-17T09:22:21.473Z,66.23452212283937
2023-06-17T09:29:29.716Z,65.80385977922622
2023-06-17T09:40:45.981Z,61.51640806676222
2023-06-17T09:54:50.421Z,62.100141613222554
2023-06-17T10:05:18.865Z,60.116138763339464
2023-06-17T10:15:03.649Z,60.99427420249161
2023-06-17T10:21:29.146Z,58.8385696806396
2023-06-17T10:27:52.988Z,58.34396992538899
2023-06-17T10:34:17.180Z,57.419568575275555
2023-06-17T10:40:40.954Z,57.094495925332964
2023-06-17T10:47:04.585Z,56.40500250884902
2023-06-17T10:53:29.177Z,55.65714404108511
2023-06-17T11:11:41.590Z,53.952579871576404
2023-06-17T11:18:06.282Z,53.34275116508261
2023-06-17T11:26:58.369Z,54.06069970598766
2023-06-17T11:36:54.000Z,51.205465121482355
2023-06-17T11:48:52.576Z,51.62395557505068
2023-06-17T11:55:16.011Z,51.02506021845497
2023-06-17T12:01:40.200Z,50.93963866355539
2023-06-17T12:08:02.781Z,50.13999865707936
2023-06-17T12:19:45.852Z,49.290860186262314
2023-06-17T12:31:10.333Z,48.43303343593342
2023-06-17T12:37:33.220Z,47.88808520280295
2023-06-17T12:43:55.915Z,46.97004642483223
2023-06-17T12:50:18.914Z,46.14838237324357
2023-06-17T12:56:55.605Z,46.02250352326346
2023-06-17T13:03:19.077Z,46.46670073893168
2023-06-17T13:09:42.519Z,44.93100105210036
2023-06-17T13:16:05.517Z,44.077132595258526
2023-06-17T13:22:28.258Z,43.64772183337386
2023-06-17T13:28:51.564Z,43.04630588666606
2023-06-17T13:50:37.680Z,41.045829864715465
2023-06-17T13:57:00.379Z,40.99929318090146
2023-06-17T14:03:23.833Z,41.930755419616055
2023-06-17T14:12:21.808Z,42.121884077586984
2023-06-17T14:18:45.008Z,41.73369822399553
2023-06-17T14:25:07.470Z,41.54819834720764
2023-06-17T14:31:30.571Z,41.93402435661009
2023-06-17T14:37:54.032Z,41.71716903166528
2023-06-17T14:48:26.031Z,40.86381672703279
2023-06-17T14:54:50.336Z,41.35487933534637
2023-06-17T15:04:53.368Z,40.32588951903024
2023-06-17T15:11:17.959Z,40.962768824115855
2023-06-17T15:17:41.427Z,41.39436887166502
2023-06-17T15:24:36.288Z,41.426054426528765
2023-06-17T15:36:35.546Z,41.93600345099575
2023-06-17T15:42:59.668Z,41.798914875783126
2023-06-17T15:59:22.155Z,42.130812874532594
2023-06-17T16:05:45.231Z,43.61923534171107
2023-06-17T16:12:08.540Z,42.41284194532795
2023-06-17T16:20:29.960Z,40.20219016604692
2023-06-17T16:31:36.320Z,40.19619367820818
2023-06-17T16:38:00.671Z,40.57010579516778
2023-06-17T16:44:24.791Z,40.18018737651098
2023-06-17T16:50:49.767Z,40.18066657109147
2023-06-17T16:57:13.018Z,40.05578853267633
2023-06-17T17:03:36.769Z,41.272676515896705
2023-06-17T17:10:00.417Z,42.725437221193964
2023-06-17T17:16:23.660Z,43.76391770029513
2023-06-17T17:28:38.764Z,43.2790864315019
2023-06-17T17:35:01.861Z,45.457707003961616
2023-06-17T17:41:24.899Z,47.97723584010884
2023-06-17T17:59:28.313Z,53.00690935765663
2023-06-17T18:07:01.989Z,54.46958850788159
2023-06-17T18:13:24.435Z,55.822054368758494
2023-06-17T18:19:47.123Z,57.86458728040848
2023-06-17T18:26:09.477Z,59.216291460190256
2023-06-17T18:32:31.372Z,59.538050741818125
2023-06-17T18:38:54.343Z,59.49549494753508
2023-06-17T18:45:17.494Z,59.43446834063601
2023-06-17T18:51:41.219Z,60.04951643361537
2023-06-17T19:04:50.921Z,59.660312255271705
2023-06-17T19:18:38.190Z,59.59786808307657
2023-06-17T19:25:01.070Z,59.86328892606445
2023-06-17T19:31:24.781Z,59.78704510216755
2023-06-17T19:42:38.301Z,59.85859792342557
2023-06-17T19:48:59.055Z,60.08536309773261
2023-06-17T19:55:21.639Z,60.72160896805428
2023-06-17T20:08:30.077Z,62.244959910760095
2023-06-17T20:14:51.003Z,62.949389109558794
2023-06-17T20:27:43.748Z,63.6612180771704
2023-06-17T20:34:04.399Z,64.2342497413902
2023-06-17T20:44:11.553Z,64.98674078513969
2023-06-17T20:50:32.212Z,65.4689485318047
2023-06-17T20:56:52.901Z,66.22296895223442
2023-06-17T21:03:13.973Z,66.98227350878052
2023-06-17T21:09:34.908Z,68.25600921330114
2023-06-17T21:22:07.019Z,69.37262353010296
2023-06-17T21:28:32.392Z,69.61776120925543
2023-06-17T21:38:19.491Z,70.35734756299018
2023-06-17T21:50:51.296Z,71.2901660798683
2023-06-17T21:57:12.733Z,71.8466805810874
2023-06-17T22:07:23.643Z,72.29605392073863
2023-06-17T22:19:38.647Z,73.2942866014328
2023-06-17T22:33:28.719Z,74.03487331536921
2023-06-17T22:44:47.415Z,74.35020152372002
2023-06-17T22:51:08.116Z,73.91000090264691
2023-06-17T22:57:28.468Z,73.56562603832992
2023-06-17T23:03:49.300Z,73.52170516637177
2023-06-17T23:10:56.769Z,73.89083085840117
2023-06-17T23:17:17.525Z,73.8943545074646
2023-06-17T23:23:37.981Z,74.45483097390607
2023-06-17T23:42:29.146Z,75.66422896387805
2023-06-17T23:48:50.423Z,76.0771323991258
2023-06-17T23:55:11.931Z,76.6155917234796
